sensor_id;sensor_type;location;lat;lon;timestamp;P1;durP1;ratioP1;P2;durP2;ratioP2
6434;SDS011;3250;42.694;23.278;2023-08-01T00:01:30;4.10;;;2.10;;
6434;SDS011;3250;42.694;23.278;2023-08-01T00:03:57;2.90;;;2.38;;
6434;SDS011;3250;42.694;23.278;2023-08-01T00:06:22;4.00;;;2.30;;
6434;SDS011;3250;42.694;23.278;2023-08-01T00:08:50;2.92;;;2.05;;
6434;SDS011;3250;42.694;23.278;2023-08-01T00:11:16;3.00;;;2.13;;
6434;SDS011;3250;42.694;23.278;2023-08-01T00:13:44;2.15;;;1.83;;
6434;SDS011;3250;42.694;23.278;2023-08-01T00:16:10;2.65;;;1.90;;
6434;SDS011;3250;42.694;23.278;2023-08-01T00:18:35;2.53;;;2.20;;
6434;SDS011;3250;42.694;23.278;2023-08-01T00:21:01;4.05;;;1.77;;
6434;SDS011;3250;42.694;23.278;2023-08-01T00:23:27;5.53;;;1.90;;
6434;SDS011;3250;42.694;23.278;2023-08-01T00:25:52;3.07;;;2.10;;
6434;SDS011;3250;42.694;23.278;2023-08-01T00:28:18;2.80;;;1.77;;
6434;SDS011;3250;42.694;23.278;2023-08-01T00:30:44;2.33;;;1.90;;
6434;SDS011;3250;42.694;23.278;2023-08-01T00:33:10;3.40;;;2.00;;
6434;SDS011;3250;42.694;23.278;2023-08-01T00:35:35;4.10;;;2.20;;
6434;SDS011;3250;42.694;23.278;2023-08-01T00:38:01;3.85;;;1.80;;
6434;SDS011;3250;42.694;23.278;2023-08-01T00:40:33;2.83;;;1.83;;
6434;SDS011;3250;42.694;23.278;2023-08-01T00:42:59;4.63;;;2.60;;
6434;SDS011;3250;42.694;23.278;2023-08-01T00:45:28;2.87;;;2.40;;
6434;SDS011;3250;42.694;23.278;2023-08-01T00:47:55;3.65;;;2.25;;
6434;SDS011;3250;42.694;23.278;2023-08-01T00:50:21;5.53;;;2.53;;
6434;SDS011;3250;42.694;23.278;2023-08-01T00:52:48;3.17;;;2.33;;
6434;SDS011;3250;42.694;23.278;2023-08-01T00:55:17;2.75;;;1.92;;
6434;SDS011;3250;42.694;23.278;2023-08-01T00:57:44;3.53;;;2.20;;
6434;SDS011;3250;42.694;23.278;2023-08-01T01:00:11;3.22;;;2.10;;
6434;SDS011;3250;42.694;23.278;2023-08-01T01:02:37;3.85;;;1.67;;
6434;SDS011;3250;42.694;23.278;2023-08-01T01:05:03;3.10;;;2.20;;
6434;SDS011;3250;42.694;23.278;2023-08-01T01:07:33;5.03;;;2.17;;
6434;SDS011;3250;42.694;23.278;2023-08-01T01:10:02;4.38;;;1.80;;
6434;SDS011;3250;42.694;23.278;2023-08-01T01:12:27;6.03;;;1.70;;
6434;SDS011;3250;42.694;23.278;2023-08-01T01:14:53;4.07;;;2.00;;
6434;SDS011;3250;42.694;23.278;2023-08-01T01:17:18;5.23;;;2.17;;
6434;SDS011;3250;42.694;23.278;2023-08-01T01:19:47;4.43;;;1.90;;
6434;SDS011;3250;42.694;23.278;2023-08-01T01:22:12;3.10;;;2.00;;
6434;SDS011;3250;42.694;23.278;2023-08-01T01:24:40;3.08;;;1.70;;
6434;SDS011;3250;42.694;23.278;2023-08-01T01:27:09;2.60;;;1.63;;
6434;SDS011;3250;42.694;23.278;2023-08-01T01:29:35;2.97;;;1.70;;
6434;SDS011;3250;42.694;23.278;2023-08-01T01:32:02;3.63;;;1.90;;
6434;SDS011;3250;42.694;23.278;2023-08-01T01:34:30;2.85;;;1.95;;
6434;SDS011;3250;42.694;23.278;2023-08-01T01:36:56;3.50;;;2.00;;
6434;SDS011;3250;42.694;23.278;2023-08-01T01:39:21;3.13;;;1.90;;
6434;SDS011;3250;42.694;23.278;2023-08-01T01:41:46;2.10;;;1.87;;
6434;SDS011;3250;42.694;23.278;2023-08-01T01:44:12;3.42;;;1.65;;
6434;SDS011;3250;42.694;23.278;2023-08-01T01:46:38;2.67;;;1.80;;
6434;SDS011;3250;42.694;23.278;2023-08-01T01:49:03;3.30;;;2.03;;
6434;SDS011;3250;42.694;23.278;2023-08-01T01:51:29;2.63;;;2.07;;
6434;SDS011;3250;42.694;23.278;2023-08-01T01:53:55;3.42;;;1.90;;
6434;SDS011;3250;42.694;23.278;2023-08-01T01:56:21;3.23;;;1.73;;
6434;SDS011;3250;42.694;23.278;2023-08-01T01:58:46;2.53;;;1.93;;
6434;SDS011;3250;42.694;23.278;2023-08-01T02:01:12;1.67;;;1.57;;
6434;SDS011;3250;42.694;23.278;2023-08-01T02:03:38;3.83;;;2.03;;
6434;SDS011;3250;42.694;23.278;2023-08-01T02:06:03;5.93;;;4.40;;
6434;SDS011;3250;42.694;23.278;2023-08-01T02:08:29;12.93;;;9.43;;
6434;SDS011;3250;42.694;23.278;2023-08-01T02:10:55;10.32;;;7.38;;
6434;SDS011;3250;42.694;23.278;2023-08-01T02:13:23;17.25;;;10.35;;
6434;SDS011;3250;42.694;23.278;2023-08-01T02:15:49;21.58;;;15.10;;
6434;SDS011;3250;42.694;23.278;2023-08-01T02:18:15;16.15;;;12.20;;
6434;SDS011;3250;42.694;23.278;2023-08-01T02:20:40;7.80;;;5.10;;
6434;SDS011;3250;42.694;23.278;2023-08-01T02:23:06;12.20;;;8.18;;
6434;SDS011;3250;42.694;23.278;2023-08-01T02:25:37;10.98;;;6.80;;
6434;SDS011;3250;42.694;23.278;2023-08-01T02:28:03;9.93;;;6.47;;
6434;SDS011;3250;42.694;23.278;2023-08-01T02:30:29;8.90;;;6.23;;
6434;SDS011;3250;42.694;23.278;2023-08-01T02:32:55;8.37;;;5.43;;
6434;SDS011;3250;42.694;23.278;2023-08-01T02:35:21;9.48;;;6.10;;
6434;SDS011;3250;42.694;23.278;2023-08-01T02:37:47;8.07;;;4.00;;
6434;SDS011;3250;42.694;23.278;2023-08-01T02:40:12;8.45;;;4.05;;
6434;SDS011;3250;42.694;23.278;2023-08-01T02:42:38;13.40;;;8.73;;
6434;SDS011;3250;42.694;23.278;2023-08-01T02:45:03;11.77;;;6.70;;
6434;SDS011;3250;42.694;23.278;2023-08-01T02:47:33;9.00;;;4.90;;
6434;SDS011;3250;42.694;23.278;2023-08-01T02:49:58;7.63;;;3.92;;
6434;SDS011;3250;42.694;23.278;2023-08-01T02:52:24;10.35;;;4.22;;
6434;SDS011;3250;42.694;23.278;2023-08-01T02:54:49;5.80;;;2.78;;
6434;SDS011;3250;42.694;23.278;2023-08-01T02:57:15;5.40;;;3.20;;
6434;SDS011;3250;42.694;23.278;2023-08-01T02:59:43;7.10;;;3.50;;
6434;SDS011;3250;42.694;23.278;2023-08-01T03:02:08;10.03;;;3.30;;
6434;SDS011;3250;42.694;23.278;2023-08-01T03:04:34;12.40;;;4.00;;
6434;SDS011;3250;42.694;23.278;2023-08-01T03:07:01;22.90;;;7.60;;
6434;SDS011;3250;42.694;23.278;2023-08-01T03:09:26;12.07;;;6.65;;
6434;SDS011;3250;42.694;23.278;2023-08-01T03:11:52;15.30;;;8.00;;
6434;SDS011;3250;42.694;23.278;2023-08-01T03:14:18;12.70;;;7.13;;
6434;SDS011;3250;42.694;23.278;2023-08-01T03:16:43;11.63;;;6.57;;
6434;SDS011;3250;42.694;23.278;2023-08-01T03:19:09;14.75;;;8.43;;
6434;SDS011;3250;42.694;23.278;2023-08-01T03:21:34;21.63;;;12.98;;
6434;SDS011;3250;42.694;23.278;2023-08-01T03:24:01;23.13;;;13.53;;
6434;SDS011;3250;42.694;23.278;2023-08-01T03:26:27;22.65;;;12.93;;
6434;SDS011;3250;42.694;23.278;2023-08-01T03:28:53;8.82;;;5.07;;
6434;SDS011;3250;42.694;23.278;2023-08-01T03:31:22;7.20;;;3.63;;
6434;SDS011;3250;42.694;23.278;2023-08-01T03:33:48;7.67;;;3.63;;
6434;SDS011;3250;42.694;23.278;2023-08-01T03:36:14;15.48;;;9.35;;
6434;SDS011;3250;42.694;23.278;2023-08-01T03:38:39;16.00;;;7.70;;
6434;SDS011;3250;42.694;23.278;2023-08-01T03:41:05;15.23;;;7.63;;
6434;SDS011;3250;42.694;23.278;2023-08-01T03:43:31;15.33;;;7.70;;
6434;SDS011;3250;42.694;23.278;2023-08-01T03:45:57;15.18;;;7.60;;
6434;SDS011;3250;42.694;23.278;2023-08-01T03:48:22;8.63;;;4.13;;
6434;SDS011;3250;42.694;23.278;2023-08-01T03:50:48;5.50;;;2.90;;
6434;SDS011;3250;42.694;23.278;2023-08-01T03:53:13;10.55;;;3.47;;
6434;SDS011;3250;42.694;23.278;2023-08-01T03:55:43;8.65;;;3.10;;
6434;SDS011;3250;42.694;23.278;2023-08-01T03:58:09;6.85;;;2.88;;
6434;SDS011;3250;42.694;23.278;2023-08-01T04:00:35;5.13;;;2.75;;
6434;SDS011;3250;42.694;23.278;2023-08-01T04:03:00;6.47;;;2.80;;
6434;SDS011;3250;42.694;23.278;2023-08-01T04:05:26;5.78;;;3.40;;
6434;SDS011;3250;42.694;23.278;2023-08-01T04:07:57;13.57;;;7.65;;
6434;SDS011;3250;42.694;23.278;2023-08-01T04:10:24;17.75;;;5.38;;
6434;SDS011;3250;42.694;23.278;2023-08-01T04:12:49;21.10;;;10.48;;
6434;SDS011;3250;42.694;23.278;2023-08-01T04:15:15;10.55;;;7.07;;
6434;SDS011;3250;42.694;23.278;2023-08-01T04:17:41;11.07;;;4.05;;
6434;SDS011;3250;42.694;23.278;2023-08-01T04:20:12;5.68;;;3.30;;
6434;SDS011;3250;42.694;23.278;2023-08-01T04:22:38;6.75;;;2.97;;
6434;SDS011;3250;42.694;23.278;2023-08-01T04:25:04;8.57;;;2.75;;
6434;SDS011;3250;42.694;23.278;2023-08-01T04:27:30;12.18;;;3.55;;
6434;SDS011;3250;42.694;23.278;2023-08-01T04:29:55;7.53;;;3.10;;
6434;SDS011;3250;42.694;23.278;2023-08-01T04:32:21;7.70;;;4.10;;
6434;SDS011;3250;42.694;23.278;2023-08-01T04:34:47;8.68;;;3.95;;
6434;SDS011;3250;42.694;23.278;2023-08-01T04:37:13;6.20;;;3.10;;
6434;SDS011;3250;42.694;23.278;2023-08-01T04:39:38;4.68;;;2.90;;
6434;SDS011;3250;42.694;23.278;2023-08-01T04:42:04;6.13;;;2.70;;
6434;SDS011;3250;42.694;23.278;2023-08-01T04:44:30;5.00;;;2.83;;
6434;SDS011;3250;42.694;23.278;2023-08-01T04:46:56;7.68;;;4.93;;
6434;SDS011;3250;42.694;23.278;2023-08-01T04:49:21;6.97;;;3.25;;
6434;SDS011;3250;42.694;23.278;2023-08-01T04:51:48;6.00;;;3.00;;
6434;SDS011;3250;42.694;23.278;2023-08-01T04:54:15;10.13;;;6.35;;
6434;SDS011;3250;42.694;23.278;2023-08-01T04:56:40;6.00;;;3.08;;
6434;SDS011;3250;42.694;23.278;2023-08-01T04:59:06;5.30;;;3.35;;
6434;SDS011;3250;42.694;23.278;2023-08-01T05:01:31;7.72;;;3.92;;
6434;SDS011;3250;42.694;23.278;2023-08-01T05:04:00;5.93;;;2.45;;
6434;SDS011;3250;42.694;23.278;2023-08-01T05:06:25;7.50;;;5.18;;
6434;SDS011;3250;42.694;23.278;2023-08-01T05:08:52;4.63;;;2.80;;
6434;SDS011;3250;42.694;23.278;2023-08-01T05:11:18;13.07;;;9.15;;
6434;SDS011;3250;42.694;23.278;2023-08-01T05:13:44;7.75;;;4.78;;
6434;SDS011;3250;42.694;23.278;2023-08-01T05:16:09;4.97;;;2.58;;
6434;SDS011;3250;42.694;23.278;2023-08-01T05:18:35;6.90;;;3.15;;
6434;SDS011;3250;42.694;23.278;2023-08-01T05:21:00;5.78;;;3.78;;
6434;SDS011;3250;42.694;23.278;2023-08-01T05:23:26;6.03;;;2.20;;
6434;SDS011;3250;42.694;23.278;2023-08-01T05:25:51;6.88;;;2.55;;
6434;SDS011;3250;42.694;23.278;2023-08-01T05:28:17;6.82;;;2.90;;
6434;SDS011;3250;42.694;23.278;2023-08-01T05:30:42;9.80;;;3.40;;
6434;SDS011;3250;42.694;23.278;2023-08-01T05:33:11;6.15;;;2.75;;
6434;SDS011;3250;42.694;23.278;2023-08-01T05:35:36;3.30;;;2.60;;
6434;SDS011;3250;42.694;23.278;2023-08-01T05:38:02;7.78;;;2.63;;
6434;SDS011;3250;42.694;23.278;2023-08-01T05:40:28;3.53;;;2.33;;
6434;SDS011;3250;42.694;23.278;2023-08-01T05:42:53;2.80;;;2.17;;
6434;SDS011;3250;42.694;23.278;2023-08-01T05:45:22;8.65;;;2.95;;
6434;SDS011;3250;42.694;23.278;2023-08-01T05:47:47;6.25;;;2.72;;
6434;SDS011;3250;42.694;23.278;2023-08-01T05:50:13;2.67;;;1.92;;
6434;SDS011;3250;42.694;23.278;2023-08-01T05:52:40;4.13;;;2.92;;
6434;SDS011;3250;42.694;23.278;2023-08-01T05:55:05;11.02;;;7.40;;
6434;SDS011;3250;42.694;23.278;2023-08-01T05:57:31;7.55;;;2.58;;
6434;SDS011;3250;42.694;23.278;2023-08-01T05:59:59;5.93;;;3.22;;
6434;SDS011;3250;42.694;23.278;2023-08-01T06:02:25;5.25;;;2.67;;
6434;SDS011;3250;42.694;23.278;2023-08-01T06:04:51;6.25;;;2.20;;
6434;SDS011;3250;42.694;23.278;2023-08-01T06:07:16;2.92;;;2.30;;
6434;SDS011;3250;42.694;23.278;2023-08-01T06:09:48;9.05;;;3.38;;
6434;SDS011;3250;42.694;23.278;2023-08-01T06:12:16;4.35;;;1.83;;
6434;SDS011;3250;42.694;23.278;2023-08-01T06:14:41;5.40;;;3.72;;
6434;SDS011;3250;42.694;23.278;2023-08-01T06:17:07;6.05;;;2.60;;
6434;SDS011;3250;42.694;23.278;2023-08-01T06:19:33;7.72;;;3.95;;
6434;SDS011;3250;42.694;23.278;2023-08-01T06:22:01;2.47;;;2.08;;
6434;SDS011;3250;42.694;23.278;2023-08-01T06:24:26;4.63;;;2.30;;
6434;SDS011;3250;42.694;23.278;2023-08-01T06:26:52;9.32;;;2.25;;
6434;SDS011;3250;42.694;23.278;2023-08-01T06:29:18;3.38;;;2.45;;
6434;SDS011;3250;42.694;23.278;2023-08-01T06:31:44;2.33;;;1.92;;
6434;SDS011;3250;42.694;23.278;2023-08-01T06:34:10;7.10;;;2.13;;
6434;SDS011;3250;42.694;23.278;2023-08-01T06:36:35;4.20;;;2.70;;
6434;SDS011;3250;42.694;23.278;2023-08-01T06:39:01;2.45;;;1.90;;
6434;SDS011;3250;42.694;23.278;2023-08-01T06:41:26;2.88;;;1.80;;
6434;SDS011;3250;42.694;23.278;2023-08-01T06:43:52;4.38;;;2.85;;
6434;SDS011;3250;42.694;23.278;2023-08-01T06:46:18;4.22;;;3.60;;
6434;SDS011;3250;42.694;23.278;2023-08-01T06:48:43;6.10;;;5.20;;
6434;SDS011;3250;42.694;23.278;2023-08-01T06:51:09;4.88;;;3.03;;
6434;SDS011;3250;42.694;23.278;2023-08-01T06:53:34;2.65;;;1.95;;
6434;SDS011;3250;42.694;23.278;2023-08-01T06:56:00;3.38;;;1.85;;
6434;SDS011;3250;42.694;23.278;2023-08-01T06:58:25;4.97;;;1.80;;
6434;SDS011;3250;42.694;23.278;2023-08-01T07:00:50;10.45;;;2.72;;
6434;SDS011;3250;42.694;23.278;2023-08-01T07:03:16;4.82;;;2.53;;
6434;SDS011;3250;42.694;23.278;2023-08-01T07:05:42;4.72;;;2.58;;
6434;SDS011;3250;42.694;23.278;2023-08-01T07:08:07;12.32;;;2.45;;
6434;SDS011;3250;42.694;23.278;2023-08-01T07:10:35;6.47;;;3.75;;
6434;SDS011;3250;42.694;23.278;2023-08-01T07:13:01;4.70;;;2.03;;
6434;SDS011;3250;42.694;23.278;2023-08-01T07:15:29;5.35;;;1.90;;
6434;SDS011;3250;42.694;23.278;2023-08-01T07:17:57;6.10;;;1.95;;
6434;SDS011;3250;42.694;23.278;2023-08-01T07:20:23;6.90;;;1.65;;
6434;SDS011;3250;42.694;23.278;2023-08-01T07:22:48;3.67;;;2.00;;
6434;SDS011;3250;42.694;23.278;2023-08-01T07:25:13;4.63;;;1.95;;
6434;SDS011;3250;42.694;23.278;2023-08-01T07:27:40;6.72;;;2.03;;
6434;SDS011;3250;42.694;23.278;2023-08-01T07:30:06;4.90;;;2.42;;
6434;SDS011;3250;42.694;23.278;2023-08-01T07:32:32;4.93;;;1.80;;
6434;SDS011;3250;42.694;23.278;2023-08-01T07:34:57;3.65;;;2.20;;
6434;SDS011;3250;42.694;23.278;2023-08-01T07:37:22;5.43;;;2.10;;
6434;SDS011;3250;42.694;23.278;2023-08-01T07:39:49;3.97;;;2.63;;
6434;SDS011;3250;42.694;23.278;2023-08-01T07:42:15;6.30;;;3.28;;
6434;SDS011;3250;42.694;23.278;2023-08-01T07:44:40;3.20;;;1.83;;
6434;SDS011;3250;42.694;23.278;2023-08-01T07:47:05;13.98;;;3.60;;
6434;SDS011;3250;42.694;23.278;2023-08-01T07:49:31;8.60;;;3.20;;
6434;SDS011;3250;42.694;23.278;2023-08-01T07:51:56;4.20;;;2.75;;
6434;SDS011;3250;42.694;23.278;2023-08-01T07:54:21;7.13;;;2.25;;
6434;SDS011;3250;42.694;23.278;2023-08-01T07:56:49;2.00;;;1.80;;
6434;SDS011;3250;42.694;23.278;2023-08-01T07:59:14;7.88;;;2.88;;
6434;SDS011;3250;42.694;23.278;2023-08-01T08:01:41;7.97;;;2.30;;
6434;SDS011;3250;42.694;23.278;2023-08-01T08:04:06;6.53;;;2.40;;
6434;SDS011;3250;42.694;23.278;2023-08-01T08:06:34;2.95;;;2.25;;
6434;SDS011;3250;42.694;23.278;2023-08-01T08:09:00;33.78;;;4.15;;
6434;SDS011;3250;42.694;23.278;2023-08-01T08:11:26;11.05;;;4.25;;
6434;SDS011;3250;42.694;23.278;2023-08-01T08:13:52;6.13;;;4.57;;
6434;SDS011;3250;42.694;23.278;2023-08-01T08:16:17;7.63;;;3.28;;
6434;SDS011;3250;42.694;23.278;2023-08-01T08:18:43;4.40;;;2.40;;
6434;SDS011;3250;42.694;23.278;2023-08-01T08:21:08;3.83;;;2.10;;
6434;SDS011;3250;42.694;23.278;2023-08-01T08:23:34;4.53;;;2.35;;
6434;SDS011;3250;42.694;23.278;2023-08-01T08:25:59;5.82;;;2.35;;
6434;SDS011;3250;42.694;23.278;2023-08-01T08:28:28;3.90;;;2.20;;
6434;SDS011;3250;42.694;23.278;2023-08-01T08:30:56;4.32;;;1.90;;
6434;SDS011;3250;42.694;23.278;2023-08-01T08:33:21;4.15;;;2.33;;
6434;SDS011;3250;42.694;23.278;2023-08-01T08:35:47;4.60;;;2.45;;
6434;SDS011;3250;42.694;23.278;2023-08-01T08:38:13;4.38;;;2.60;;
6434;SDS011;3250;42.694;23.278;2023-08-01T08:40:43;8.75;;;2.63;;
6434;SDS011;3250;42.694;23.278;2023-08-01T08:43:13;6.90;;;2.10;;
6434;SDS011;3250;42.694;23.278;2023-08-01T08:45:45;3.13;;;2.03;;
6434;SDS011;3250;42.694;23.278;2023-08-01T08:48:15;2.88;;;2.10;;
6434;SDS011;3250;42.694;23.278;2023-08-01T08:50:45;6.13;;;2.30;;
6434;SDS011;3250;42.694;23.278;2023-08-01T08:53:11;6.80;;;2.50;;
6434;SDS011;3250;42.694;23.278;2023-08-01T08:55:40;4.53;;;2.25;;
6434;SDS011;3250;42.694;23.278;2023-08-01T08:58:07;5.15;;;1.92;;
6434;SDS011;3250;42.694;23.278;2023-08-01T09:00:34;5.03;;;2.22;;
6434;SDS011;3250;42.694;23.278;2023-08-01T09:03:02;4.65;;;2.38;;
6434;SDS011;3250;42.694;23.278;2023-08-01T09:05:28;3.45;;;1.95;;
6434;SDS011;3250;42.694;23.278;2023-08-01T09:07:59;3.50;;;2.15;;
6434;SDS011;3250;42.694;23.278;2023-08-01T09:10:30;3.13;;;2.20;;
6434;SDS011;3250;42.694;23.278;2023-08-01T09:15:39;5.15;;;2.35;;
6434;SDS011;3250;42.694;23.278;2023-08-01T09:18:07;5.00;;;2.35;;
6434;SDS011;3250;42.694;23.278;2023-08-01T09:20:46;4.55;;;2.53;;
6434;SDS011;3250;42.694;23.278;2023-08-01T09:23:13;3.22;;;2.30;;
6434;SDS011;3250;42.694;23.278;2023-08-01T09:25:39;4.00;;;2.50;;
6434;SDS011;3250;42.694;23.278;2023-08-01T09:28:14;5.47;;;2.55;;
6434;SDS011;3250;42.694;23.278;2023-08-01T09:30:51;3.58;;;2.45;;
6434;SDS011;3250;42.694;23.278;2023-08-01T09:33:19;4.68;;;2.55;;
6434;SDS011;3250;42.694;23.278;2023-08-01T09:35:45;7.57;;;2.63;;
6434;SDS011;3250;42.694;23.278;2023-08-01T09:38:13;3.58;;;2.10;;
6434;SDS011;3250;42.694;23.278;2023-08-01T09:40:40;5.03;;;2.85;;
6434;SDS011;3250;42.694;23.278;2023-08-01T09:43:06;5.57;;;2.70;;
6434;SDS011;3250;42.694;23.278;2023-08-01T09:45:32;3.85;;;2.45;;
6434;SDS011;3250;42.694;23.278;2023-08-01T09:47:59;7.10;;;3.00;;
6434;SDS011;3250;42.694;23.278;2023-08-01T09:50:25;5.10;;;2.67;;
6434;SDS011;3250;42.694;23.278;2023-08-01T09:52:50;9.07;;;3.17;;
6434;SDS011;3250;42.694;23.278;2023-08-01T09:57:51;5.15;;;2.35;;
6434;SDS011;3250;42.694;23.278;2023-08-01T10:00:19;6.78;;;2.38;;
6434;SDS011;3250;42.694;23.278;2023-08-01T10:02:44;5.88;;;2.50;;
6434;SDS011;3250;42.694;23.278;2023-08-01T10:05:10;4.00;;;2.78;;
6434;SDS011;3250;42.694;23.278;2023-08-01T10:07:37;9.23;;;2.95;;
6434;SDS011;3250;42.694;23.278;2023-08-01T10:10:06;5.60;;;2.70;;
6434;SDS011;3250;42.694;23.278;2023-08-01T10:12:32;4.68;;;3.20;;
6434;SDS011;3250;42.694;23.278;2023-08-01T10:14:58;3.17;;;2.70;;
6434;SDS011;3250;42.694;23.278;2023-08-01T10:17:25;7.40;;;2.72;;
6434;SDS011;3250;42.694;23.278;2023-08-01T10:19:51;2.58;;;2.30;;
6434;SDS011;3250;42.694;23.278;2023-08-01T10:22:21;5.90;;;2.35;;
6434;SDS011;3250;42.694;23.278;2023-08-01T10:24:47;7.75;;;2.95;;
6434;SDS011;3250;42.694;23.278;2023-08-01T10:27:14;3.92;;;2.50;;
6434;SDS011;3250;42.694;23.278;2023-08-01T10:29:41;4.18;;;2.67;;
6434;SDS011;3250;42.694;23.278;2023-08-01T10:32:07;7.28;;;2.78;;
6434;SDS011;3250;42.694;23.278;2023-08-01T10:34:33;3.35;;;2.25;;
6434;SDS011;3250;42.694;23.278;2023-08-01T10:36:59;6.32;;;2.65;;
6434;SDS011;3250;42.694;23.278;2023-08-01T10:39:25;4.35;;;2.13;;
6434;SDS011;3250;42.694;23.278;2023-08-01T10:41:59;6.03;;;2.35;;
6434;SDS011;3250;42.694;23.278;2023-08-01T10:44:26;15.25;;;2.55;;
6434;SDS011;3250;42.694;23.278;2023-08-01T10:49:18;4.57;;;2.58;;
6434;SDS011;3250;42.694;23.278;2023-08-01T10:51:46;2.88;;;2.20;;
6434;SDS011;3250;42.694;23.278;2023-08-01T10:54:19;7.35;;;2.88;;
6434;SDS011;3250;42.694;23.278;2023-08-01T10:56:46;7.10;;;3.22;;
6434;SDS011;3250;42.694;23.278;2023-08-01T10:59:13;4.72;;;2.30;;
6434;SDS011;3250;42.694;23.278;2023-08-01T11:01:49;4.78;;;3.50;;
6434;SDS011;3250;42.694;23.278;2023-08-01T11:04:20;6.22;;;2.65;;
6434;SDS011;3250;42.694;23.278;2023-08-01T11:06:47;4.65;;;3.08;;
6434;SDS011;3250;42.694;23.278;2023-08-01T11:09:18;3.78;;;2.33;;
6434;SDS011;3250;42.694;23.278;2023-08-01T11:11:57;4.45;;;2.95;;
6434;SDS011;3250;42.694;23.278;2023-08-01T11:14:24;2.33;;;2.03;;
6434;SDS011;3250;42.694;23.278;2023-08-01T11:16:51;4.13;;;2.28;;
6434;SDS011;3250;42.694;23.278;2023-08-01T11:21:47;2.83;;;2.45;;
6434;SDS011;3250;42.694;23.278;2023-08-01T11:24:13;2.55;;;2.20;;
6434;SDS011;3250;42.694;23.278;2023-08-01T11:26:42;3.10;;;1.88;;
6434;SDS011;3250;42.694;23.278;2023-08-01T11:29:09;3.25;;;1.90;;
6434;SDS011;3250;42.694;23.278;2023-08-01T11:31:36;2.20;;;2.00;;
6434;SDS011;3250;42.694;23.278;2023-08-01T11:34:01;2.25;;;1.90;;
6434;SDS011;3250;42.694;23.278;2023-08-01T11:36:28;3.65;;;2.25;;
6434;SDS011;3250;42.694;23.278;2023-08-01T11:38:54;3.83;;;1.83;;
6434;SDS011;3250;42.694;23.278;2023-08-01T11:41:22;2.92;;;1.75;;
6434;SDS011;3250;42.694;23.278;2023-08-01T11:43:49;2.03;;;1.60;;
6434;SDS011;3250;42.694;23.278;2023-08-01T11:46:15;1.73;;;1.55;;
6434;SDS011;3250;42.694;23.278;2023-08-01T11:48:44;1.80;;;1.70;;
6434;SDS011;3250;42.694;23.278;2023-08-01T11:51:11;2.80;;;2.10;;
6434;SDS011;3250;42.694;23.278;2023-08-01T11:53:36;4.00;;;2.00;;
6434;SDS011;3250;42.694;23.278;2023-08-01T11:56:04;1.60;;;1.50;;
6434;SDS011;3250;42.694;23.278;2023-08-01T11:58:34;3.42;;;1.48;;
6434;SDS011;3250;42.694;23.278;2023-08-01T12:01:04;2.90;;;1.75;;
6434;SDS011;3250;42.694;23.278;2023-08-01T12:03:43;4.00;;;1.80;;
6434;SDS011;3250;42.694;23.278;2023-08-01T12:06:10;2.63;;;1.90;;
6434;SDS011;3250;42.694;23.278;2023-08-01T12:08:37;3.45;;;3.15;;
6434;SDS011;3250;42.694;23.278;2023-08-01T12:11:03;2.75;;;2.35;;
6434;SDS011;3250;42.694;23.278;2023-08-01T12:13:29;4.72;;;2.13;;
6434;SDS011;3250;42.694;23.278;2023-08-01T12:15:56;1.92;;;1.75;;
6434;SDS011;3250;42.694;23.278;2023-08-01T12:18:28;3.58;;;1.80;;
6434;SDS011;3250;42.694;23.278;2023-08-01T12:20:54;5.88;;;1.77;;
6434;SDS011;3250;42.694;23.278;2023-08-01T12:23:21;4.53;;;2.10;;
6434;SDS011;3250;42.694;23.278;2023-08-01T12:25:46;3.95;;;2.72;;
6434;SDS011;3250;42.694;23.278;2023-08-01T12:28:15;3.00;;;2.45;;
6434;SDS011;3250;42.694;23.278;2023-08-01T12:30:43;7.60;;;3.75;;
6434;SDS011;3250;42.694;23.278;2023-08-01T12:33:08;5.07;;;2.28;;
6434;SDS011;3250;42.694;23.278;2023-08-01T12:35:34;2.03;;;1.80;;
6434;SDS011;3250;42.694;23.278;2023-08-01T12:38:03;3.78;;;2.20;;
6434;SDS011;3250;42.694;23.278;2023-08-01T12:40:29;3.33;;;1.80;;
6434;SDS011;3250;42.694;23.278;2023-08-01T12:42:54;4.35;;;2.00;;
6434;SDS011;3250;42.694;23.278;2023-08-01T12:45:19;2.35;;;1.92;;
6434;SDS011;3250;42.694;23.278;2023-08-01T12:47:45;3.72;;;1.80;;
6434;SDS011;3250;42.694;23.278;2023-08-01T12:50:11;1.63;;;1.52;;
6434;SDS011;3250;42.694;23.278;2023-08-01T12:52:36;2.47;;;2.20;;
6434;SDS011;3250;42.694;23.278;2023-08-01T12:55:01;2.95;;;1.90;;
6434;SDS011;3250;42.694;23.278;2023-08-01T12:57:27;7.80;;;2.78;;
6434;SDS011;3250;42.694;23.278;2023-08-01T12:59:52;3.80;;;2.55;;
6434;SDS011;3250;42.694;23.278;2023-08-01T13:02:18;6.50;;;2.45;;
6434;SDS011;3250;42.694;23.278;2023-08-01T13:04:43;4.47;;;2.00;;
6434;SDS011;3250;42.694;23.278;2023-08-01T13:07:08;2.28;;;2.08;;
6434;SDS011;3250;42.694;23.278;2023-08-01T13:09:34;7.03;;;2.53;;
6434;SDS011;3250;42.694;23.278;2023-08-01T13:11:59;3.78;;;2.60;;
6434;SDS011;3250;42.694;23.278;2023-08-01T13:14:25;4.20;;;2.15;;
6434;SDS011;3250;42.694;23.278;2023-08-01T13:16:50;13.93;;;7.88;;
6434;SDS011;3250;42.694;23.278;2023-08-01T13:19:16;6.72;;;3.60;;
6434;SDS011;3250;42.694;23.278;2023-08-01T13:21:41;9.27;;;3.35;;
6434;SDS011;3250;42.694;23.278;2023-08-01T13:24:08;4.28;;;3.25;;
6434;SDS011;3250;42.694;23.278;2023-08-01T13:26:33;3.50;;;2.88;;
6434;SDS011;3250;42.694;23.278;2023-08-01T13:28:59;9.90;;;2.80;;
6434;SDS011;3250;42.694;23.278;2023-08-01T13:31:25;3.33;;;2.55;;
6434;SDS011;3250;42.694;23.278;2023-08-01T13:33:56;6.13;;;3.50;;
6434;SDS011;3250;42.694;23.278;2023-08-01T13:36:23;6.18;;;3.35;;
6434;SDS011;3250;42.694;23.278;2023-08-01T13:38:48;2.45;;;1.90;;
6434;SDS011;3250;42.694;23.278;2023-08-01T13:41:14;2.75;;;2.38;;
6434;SDS011;3250;42.694;23.278;2023-08-01T13:43:40;3.92;;;2.22;;
6434;SDS011;3250;42.694;23.278;2023-08-01T13:46:16;6.13;;;2.05;;
6434;SDS011;3250;42.694;23.278;2023-08-01T13:48:43;4.97;;;2.42;;
6434;SDS011;3250;42.694;23.278;2023-08-01T13:51:09;4.68;;;2.05;;
6434;SDS011;3250;42.694;23.278;2023-08-01T13:53:35;2.88;;;1.83;;
6434;SDS011;3250;42.694;23.278;2023-08-01T13:56:05;4.57;;;1.70;;
6434;SDS011;3250;42.694;23.278;2023-08-01T13:58:38;4.55;;;2.10;;
6434;SDS011;3250;42.694;23.278;2023-08-01T14:01:07;5.78;;;2.60;;
6434;SDS011;3250;42.694;23.278;2023-08-01T14:03:37;2.97;;;2.50;;
6434;SDS011;3250;42.694;23.278;2023-08-01T14:06:07;3.35;;;2.40;;
6434;SDS011;3250;42.694;23.278;2023-08-01T14:08:33;5.60;;;1.92;;
6434;SDS011;3250;42.694;23.278;2023-08-01T14:11:00;4.05;;;2.20;;
6434;SDS011;3250;42.694;23.278;2023-08-01T14:13:29;2.08;;;1.90;;
6434;SDS011;3250;42.694;23.278;2023-08-01T14:15:54;6.45;;;2.20;;
6434;SDS011;3250;42.694;23.278;2023-08-01T14:18:20;2.40;;;2.13;;
6434;SDS011;3250;42.694;23.278;2023-08-01T14:20:45;2.75;;;1.95;;
6434;SDS011;3250;42.694;23.278;2023-08-01T14:23:11;2.63;;;2.42;;
6434;SDS011;3250;42.694;23.278;2023-08-01T14:25:37;3.97;;;1.77;;
6434;SDS011;3250;42.694;23.278;2023-08-01T14:28:02;3.88;;;1.88;;
6434;SDS011;3250;42.694;23.278;2023-08-01T14:30:27;2.55;;;1.73;;
6434;SDS011;3250;42.694;23.278;2023-08-01T14:33:00;2.10;;;1.90;;
6434;SDS011;3250;42.694;23.278;2023-08-01T14:35:29;2.60;;;2.15;;
6434;SDS011;3250;42.694;23.278;2023-08-01T14:37:55;3.22;;;2.10;;
6434;SDS011;3250;42.694;23.278;2023-08-01T14:40:23;3.65;;;2.22;;
6434;SDS011;3250;42.694;23.278;2023-08-01T14:42:49;3.33;;;2.30;;
6434;SDS011;3250;42.694;23.278;2023-08-01T14:45:15;2.33;;;1.92;;
6434;SDS011;3250;42.694;23.278;2023-08-01T14:47:41;2.10;;;1.90;;
6434;SDS011;3250;42.694;23.278;2023-08-01T14:50:08;3.50;;;2.22;;
6434;SDS011;3250;42.694;23.278;2023-08-01T14:52:34;2.28;;;1.80;;
6434;SDS011;3250;42.694;23.278;2023-08-01T14:55:00;3.28;;;2.00;;
6434;SDS011;3250;42.694;23.278;2023-08-01T14:57:25;5.28;;;2.90;;
6434;SDS011;3250;42.694;23.278;2023-08-01T14:59:50;3.03;;;2.35;;
6434;SDS011;3250;42.694;23.278;2023-08-01T15:02:16;4.85;;;3.22;;
6434;SDS011;3250;42.694;23.278;2023-08-01T15:04:41;4.78;;;2.58;;
6434;SDS011;3250;42.694;23.278;2023-08-01T15:07:07;2.78;;;2.05;;